sensor_id;sensor_type;location;lat;lon;timestamp;P1;durP1;ratioP1;P2;durP2;ratioP2
61570;SDS011;47463;49.884;10.010;2023-07-13T00:00:00;5.3;;;2.6;;
61570;SDS011;47463;49.884;10.010;2023-07-13T00:05:00;3.6;;;2.1;;
61570;SDS011;47463;49.884;10.010;2023-07-13T00:10:00;4.4;;;2.6;;
61570;SDS011;47463;49.884;10.010;2023-07-13T00:15:00;4.4;;;2.6;;
61570;SDS011;47463;49.884;10.010;2023-07-13T00:20:00;5.5;;;2.5;;
61570;SDS011;47463;49.884;10.010;2023-07-13T00:25:00;5.9;;;2.8;;
61570;SDS011;47463;49.884;10.010;2023-07-13T00:30:00;6.1;;;2.6;;
61570;SDS011;47463;49.884;10.010;2023-07-13T00:35:00;4.9;;;2.5;;
61570;SDS011;47463;49.884;10.010;2023-07-13T00:40:00;4;;;2.5;;
61570;SDS011;47463;49.884;10.010;2023-07-13T00:45:00;4;;;2.5;;
61570;SDS011;47463;49.884;10.010;2023-07-13T00:50:00;3.4;;;2.4;;
61570;SDS011;47463;49.884;10.010;2023-07-13T00:55:00;4.3;;;2.3;;
61570;SDS011;47463;49.884;10.010;2023-07-13T01:00:00;5.5;;;2.7;;
61570;SDS011;47463;49.884;10.010;2023-07-13T01:05:00;4.2;;;2.4;;
61570;SDS011;47463;49.884;10.010;2023-07-13T01:10:00;6.7;;;2.7;;
61570;SDS011;47463;49.884;10.010;2023-07-13T01:15:00;6.7;;;2.7;;
61570;SDS011;47463;49.884;10.010;2023-07-13T01:20:00;4.1;;;2.7;;
61570;SDS011;47463;49.884;10.010;2023-07-13T01:25:00;5.2;;;3;;
61570;SDS011;47463;49.884;10.010;2023-07-13T01:30:00;4.7;;;2.6;;
61570;SDS011;47463;49.884;10.010;2023-07-13T01:35:00;4.3;;;3;;
61570;SDS011;47463;49.884;10.010;2023-07-13T01:40:00;5.4;;;2.5;;
61570;SDS011;47463;49.884;10.010;2023-07-13T01:45:00;5.4;;;2.5;;
61570;SDS011;47463;49.884;10.010;2023-07-13T01:50:00;5.3;;;2.7;;
61570;SDS011;47463;49.884;10.010;2023-07-13T01:55:00;4;;;2.7;;
61570;SDS011;47463;49.884;10.010;2023-07-13T02:00:01;4.2;;;2.6;;
61570;SDS011;47463;49.884;10.010;2023-07-13T02:05:00;4;;;2.8;;
61570;SDS011;47463;49.884;10.010;2023-07-13T02:10:00;4.5;;;2.8;;
61570;SDS011;47463;49.884;10.010;2023-07-13T02:15:00;4.5;;;2.8;;
61570;SDS011;47463;49.884;10.010;2023-07-13T02:20:00;3.8;;;2.5;;
61570;SDS011;47463;49.884;10.010;2023-07-13T02:25:00;5.3;;;2.5;;
61570;SDS011;47463;49.884;10.010;2023-07-13T02:30:00;3.6;;;2.5;;
61570;SDS011;47463;49.884;10.010;2023-07-13T02:35:00;3.6;;;2.5;;
61570;SDS011;47463;49.884;10.010;2023-07-13T02:40:00;6.4;;;3.1;;
61570;SDS011;47463;49.884;10.010;2023-07-13T02:45:00;6.4;;;3.1;;
61570;SDS011;47463;49.884;10.010;2023-07-13T02:50:00;5.8;;;2.9;;
61570;SDS011;47463;49.884;10.010;2023-07-13T02:55:00;6.2;;;2.9;;
61570;SDS011;47463;49.884;10.010;2023-07-13T03:00:00;4.5;;;2.2;;
61570;SDS011;47463;49.884;10.010;2023-07-13T03:05:00;7;;;2.7;;
61570;SDS011;47463;49.884;10.010;2023-07-13T03:10:00;6.1;;;2.4;;
61570;SDS011;47463;49.884;10.010;2023-07-13T03:15:00;6.1;;;2.4;;
61570;SDS011;47463;49.884;10.010;2023-07-13T03:20:00;7.2;;;2.6;;
61570;SDS011;47463;49.884;10.010;2023-07-13T03:25:00;4.9;;;2.6;;
61570;SDS011;47463;49.884;10.010;2023-07-13T03:30:00;6.3;;;2.4;;
61570;SDS011;47463;49.884;10.010;2023-07-13T03:35:00;6.9;;;2.5;;
61570;SDS011;47463;49.884;10.010;2023-07-13T03:40:00;5.8;;;2.8;;
61570;SDS011;47463;49.884;10.010;2023-07-13T03:45:00;5.8;;;2.8;;
61570;SDS011;47463;49.884;10.010;2023-07-13T03:50:00;4.8;;;2.4;;
61570;SDS011;47463;49.884;10.010;2023-07-13T03:55:00;8.2;;;2.7;;
61570;SDS011;47463;49.884;10.010;2023-07-13T04:00:00;6.3;;;2.6;;
61570;SDS011;47463;49.884;10.010;2023-07-13T04:05:00;6.3;;;2.6;;
61570;SDS011;47463;49.884;10.010;2023-07-13T04:10:00;5.2;;;2.3;;
61570;SDS011;47463;49.884;10.010;2023-07-13T04:15:00;5.2;;;2.3;;
61570;SDS011;47463;49.884;10.010;2023-07-13T04:20:00;5.8;;;2.2;;
61570;SDS011;47463;49.884;10.010;2023-07-13T04:25:00;3.9;;;2.1;;
61570;SDS011;47463;49.884;10.010;2023-07-13T04:30:00;9.2;;;2;;
61570;SDS011;47463;49.884;10.010;2023-07-13T04:35:00;5.1;;;2.2;;
61570;SDS011;47463;49.884;10.010;2023-07-13T04:40:00;4.7;;;2.3;;
61570;SDS011;47463;49.884;10.010;2023-07-13T04:45:00;4.7;;;2.3;;
61570;SDS011;47463;49.884;10.010;2023-07-13T04:50:00;7;;;2.4;;
61570;SDS011;47463;49.884;10.010;2023-07-13T04:55:00;4.4;;;2;;
61570;SDS011;47463;49.884;10.010;2023-07-13T05:00:00;4.2;;;1.8;;
61570;SDS011;47463;49.884;10.010;2023-07-13T05:05:00;6.2;;;2.2;;
61570;SDS011;47463;49.884;10.010;2023-07-13T05:10:00;4.4;;;2;;
61570;SDS011;47463;49.884;10.010;2023-07-13T05:15:00;4.4;;;2;;
61570;SDS011;47463;49.884;10.010;2023-07-13T05:20:00;5.3;;;1.9;;
61570;SDS011;47463;49.884;10.010;2023-07-13T05:25:00;7.2;;;2.3;;
61570;SDS011;47463;49.884;10.010;2023-07-13T05:30:00;4.6;;;1.8;;
61570;SDS011;47463;49.884;10.010;2023-07-13T05:35:00;3.8;;;2;;
61570;SDS011;47463;49.884;10.010;2023-07-13T05:40:00;2.9;;;1.6;;
61570;SDS011;47463;49.884;10.010;2023-07-13T05:45:00;2.9;;;1.6;;
61570;SDS011;47463;49.884;10.010;2023-07-13T05:50:00;5.2;;;2;;
61570;SDS011;47463;49.884;10.010;2023-07-13T05:55:00;6.2;;;1.9;;
61570;SDS011;47463;49.884;10.010;2023-07-13T06:00:00;7.1;;;1.9;;
61570;SDS011;47463;49.884;10.010;2023-07-13T06:05:00;7.2;;;2.1;;
61570;SDS011;47463;49.884;10.010;2023-07-13T06:10:00;12.4;;;2.2;;
61570;SDS011;47463;49.884;10.010;2023-07-13T06:15:00;12.4;;;2.2;;
61570;SDS011;47463;49.884;10.010;2023-07-13T06:20:00;6.9;;;1.7;;
61570;SDS011;47463;49.884;10.010;2023-07-13T06:25:00;9.2;;;2.1;;
61570;SDS011;47463;49.884;10.010;2023-07-13T06:30:00;7.3;;;2.7;;
61570;SDS011;47463;49.884;10.010;2023-07-13T06:35:00;5.8;;;1.6;;
61570;SDS011;47463;49.884;10.010;2023-07-13T06:40:00;5.8;;;1.5;;
61570;SDS011;47463;49.884;10.010;2023-07-13T06:45:00;5.8;;;1.5;;
61570;SDS011;47463;49.884;10.010;2023-07-13T06:50:00;4.1;;;1.4;;
61570;SDS011;47463;49.884;10.010;2023-07-13T06:55:00;5.6;;;1.5;;
61570;SDS011;47463;49.884;10.010;2023-07-13T07:00:00;5.6;;;1.5;;
61570;SDS011;47463;49.884;10.010;2023-07-13T07:05:00;4.3;;;1.5;;
61570;SDS011;47463;49.884;10.010;2023-07-13T07:10:00;4.3;;;1.5;;
61570;SDS011;47463;49.884;10.010;2023-07-13T07:15:00;4.3;;;1.5;;
61570;SDS011;47463;49.884;10.010;2023-07-13T07:20:00;3.7;;;1.5;;
61570;SDS011;47463;49.884;10.010;2023-07-13T07:25:00;5.3;;;1.5;;
61570;SDS011;47463;49.884;10.010;2023-07-13T07:30:00;4.7;;;1.6;;
61570;SDS011;47463;49.884;10.010;2023-07-13T07:35:00;4.8;;;1.4;;
61570;SDS011;47463;49.884;10.010;2023-07-13T07:40:00;5.4;;;1.5;;
61570;SDS011;47463;49.884;10.010;2023-07-13T07:45:00;5.4;;;1.5;;
61570;SDS011;47463;49.884;10.010;2023-07-13T07:50:00;8.4;;;1.8;;
61570;SDS011;47463;49.884;10.010;2023-07-13T07:55:00;3.5;;;1.3;;
61570;SDS011;47463;49.884;10.010;2023-07-13T08:00:00;3.3;;;1.5;;
61570;SDS011;47463;49.884;10.010;2023-07-13T08:05:00;4.5;;;1.5;;
61570;SDS011;47463;49.884;10.010;2023-07-13T08:10:00;4.2;;;1.6;;
61570;SDS011;47463;49.884;10.010;2023-07-13T08:15:00;4.2;;;1.6;;
61570;SDS011;47463;49.884;10.010;2023-07-13T08:20:00;2.7;;;1.4;;
61570;SDS011;47463;49.884;10.010;2023-07-13T08:25:00;4.9;;;1.7;;
61570;SDS011;47463;49.884;10.010;2023-07-13T08:30:00;3.3;;;1.6;;
61570;SDS011;47463;49.884;10.010;2023-07-13T08:35:00;2.9;;;1.5;;
61570;SDS011;47463;49.884;10.010;2023-07-13T08:40:00;6;;;1.7;;
61570;SDS011;47463;49.884;10.010;2023-07-13T08:45:03;6;;;1.7;;
61570;SDS011;47463;49.884;10.010;2023-07-13T08:50:00;4.7;;;1.8;;
61570;SDS011;47463;49.884;10.010;2023-07-13T08:55:02;5.1;;;1.4;;
61570;SDS011;47463;49.884;10.010;2023-07-13T09:00:00;3.8;;;1.4;;
61570;SDS011;47463;49.884;10.010;2023-07-13T09:05:01;5.5;;;2.2;;
61570;SDS011;47463;49.884;10.010;2023-07-13T09:10:03;5.9;;;1.8;;
61570;SDS011;47463;49.884;10.010;2023-07-13T09:15:00;5.9;;;1.8;;
61570;SDS011;47463;49.884;10.010;2023-07-13T09:20:00;5.1;;;1.5;;
61570;SDS011;47463;49.884;10.010;2023-07-13T09:25:00;7.4;;;1.7;;
61570;SDS011;47463;49.884;10.010;2023-07-13T09:30:02;4.8;;;1.7;;
61570;SDS011;47463;49.884;10.010;2023-07-13T09:35:00;4.1;;;1.7;;
61570;SDS011;47463;49.884;10.010;2023-07-13T09:40:00;5.1;;;1.8;;
61570;SDS011;47463;49.884;10.010;2023-07-13T09:45:00;5.1;;;1.8;;
61570;SDS011;47463;49.884;10.010;2023-07-13T09:50:00;6.5;;;2;;
61570;SDS011;47463;49.884;10.010;2023-07-13T09:55:00;4.6;;;2.1;;
61570;SDS011;47463;49.884;10.010;2023-07-13T10:00:00;5.1;;;2.4;;
61570;SDS011;47463;49.884;10.010;2023-07-13T10:05:00;6.1;;;1.8;;
61570;SDS011;47463;49.884;10.010;2023-07-13T10:10:00;4.4;;;1.7;;
61570;SDS011;47463;49.884;10.010;2023-07-13T10:15:00;4.4;;;1.7;;
61570;SDS011;47463;49.884;10.010;2023-07-13T10:20:01;6;;;1.8;;
61570;SDS011;47463;49.884;10.010;2023-07-13T10:25:00;5.4;;;1.7;;
61570;SDS011;47463;49.884;10.010;2023-07-13T10:30:01;4.9;;;1.8;;
61570;SDS011;47463;49.884;10.010;2023-07-13T10:35:00;4.2;;;1.6;;
61570;SDS011;47463;49.884;10.010;2023-07-13T10:40:00;5.7;;;2.3;;
61570;SDS011;47463;49.884;10.010;2023-07-13T10:45:00;5.7;;;2.3;;
61570;SDS011;47463;49.884;10.010;2023-07-13T10:50:00;3.4;;;2.1;;
61570;SDS011;47463;49.884;10.010;2023-07-13T10:55:00;3.9;;;2.5;;
61570;SDS011;47463;49.884;10.010;2023-07-13T11:00:16;6.4;;;2.1;;
61570;SDS011;47463;49.884;10.010;2023-07-13T11:05:01;4.3;;;1.8;;
61570;SDS011;47463;49.884;10.010;2023-07-13T11:10:03;3.6;;;1.8;;
61570;SDS011;47463;49.884;10.010;2023-07-13T11:15:01;3.6;;;1.8;;
61570;SDS011;47463;49.884;10.010;2023-07-13T11:20:08;5.4;;;1.9;;
61570;SDS011;47463;49.884;10.010;2023-07-13T11:25:00;4.2;;;1.7;;
61570;SDS011;47463;49.884;10.010;2023-07-13T11:30:32;7.3;;;2;;
61570;SDS011;47463;49.884;10.010;2023-07-13T11:35:00;5.4;;;1.8;;
61570;SDS011;47463;49.884;10.010;2023-07-13T11:40:00;4.8;;;1.8;;
61570;SDS011;47463;49.884;10.010;2023-07-13T11:45:00;4.8;;;1.8;;
61570;SDS011;47463;49.884;10.010;2023-07-13T11:50:00;6.2;;;1.8;;
61570;SDS011;47463;49.884;10.010;2023-07-13T11:55:00;8.7;;;2;;
61570;SDS011;47463;49.884;10.010;2023-07-13T12:00:00;4.7;;;1.9;;
61570;SDS011;47463;49.884;10.010;2023-07-13T12:05:00;3.6;;;1.7;;
61570;SDS011;47463;49.884;10.010;2023-07-13T12:10:00;4.8;;;1.7;;
61570;SDS011;47463;49.884;10.010;2023-07-13T12:15:00;4.8;;;1.7;;
61570;SDS011;47463;49.884;10.010;2023-07-13T12:20:00;5.1;;;1.9;;
61570;SDS011;47463;49.884;10.010;2023-07-13T12:25:00;4.4;;;1.8;;
61570;SDS011;47463;49.884;10.010;2023-07-13T12:30:01;4.6;;;1.8;;
61570;SDS011;47463;49.884;10.010;2023-07-13T12:35:06;4.8;;;1.7;;
61570;SDS011;47463;49.884;10.010;2023-07-13T12:40:00;5.3;;;1.7;;
61570;SDS011;47463;49.884;10.010;2023-07-13T12:45:01;5.3;;;1.7;;
61570;SDS011;47463;49.884;10.010;2023-07-13T12:50:00;4.3;;;1.7;;
61570;SDS011;47463;49.884;10.010;2023-07-13T12:55:03;3.8;;;1.5;;
61570;SDS011;47463;49.884;10.010;2023-07-13T13:00:00;4.3;;;1.7;;
61570;SDS011;47463;49.884;10.010;2023-07-13T13:05:00;4.9;;;1.8;;
61570;SDS011;47463;49.884;10.010;2023-07-13T13:10:00;10.7;;;1.9;;
61570;SDS011;47463;49.884;10.010;2023-07-13T13:15:00;10.7;;;1.9;;
61570;SDS011;47463;49.884;10.010;2023-07-13T13:20:00;5.2;;;1.8;;
61570;SDS011;47463;49.884;10.010;2023-07-13T13:25:00;4.4;;;1.7;;
61570;SDS011;47463;49.884;10.010;2023-07-13T13:30:00;4.3;;;1.7;;
61570;SDS011;47463;49.884;10.010;2023-07-13T13:35:00;3.4;;;1.7;;
61570;SDS011;47463;49.884;10.010;2023-07-13T13:40:00;4;;;2;;
61570;SDS011;47463;49.884;10.010;2023-07-13T13:45:00;4;;;2;;
61570;SDS011;47463;49.884;10.010;2023-07-13T13:50:00;4.8;;;1.6;;
61570;SDS011;47463;49.884;10.010;2023-07-13T13:55:00;4;;;1.8;;
61570;SDS011;47463;49.884;10.010;2023-07-13T14:00:00;5.1;;;1.7;;
61570;SDS011;47463;49.884;10.010;2023-07-13T14:05:00;2.4;;;1.6;;
61570;SDS011;47463;49.884;10.010;2023-07-13T14:10:00;3.8;;;1.5;;
61570;SDS011;47463;49.884;10.010;2023-07-13T14:15:00;3.8;;;1.5;;
61570;SDS011;47463;49.884;10.010;2023-07-13T14:20:00;5.5;;;1.7;;
61570;SDS011;47463;49.884;10.010;2023-07-13T14:25:00;5.2;;;2.1;;
61570;SDS011;47463;49.884;10.010;2023-07-13T14:30:00;4.7;;;1.8;;
61570;SDS011;47463;49.884;10.010;2023-07-13T14:35:00;4.4;;;2;;
61570;SDS011;47463;49.884;10.010;2023-07-13T14:40:00;3.1;;;1.8;;
61570;SDS011;47463;49.884;10.010;2023-07-13T14:45:00;3.1;;;1.8;;
61570;SDS011;47463;49.884;10.010;2023-07-13T14:50:00;4.5;;;1.8;;
61570;SDS011;47463;49.884;10.010;2023-07-13T14:55:00;3.7;;;2;;
61570;SDS011;47463;49.884;10.010;2023-07-13T15:00:00;3.5;;;1.7;;
61570;SDS011;47463;49.884;10.010;2023-07-13T15:05:00;6;;;2.3;;
61570;SDS011;47463;49.884;10.010;2023-07-13T15:10:00;5.3;;;2.3;;
61570;SDS011;47463;49.884;10.010;2023-07-13T15:15:00;5.3;;;2.3;;
61570;SDS011;47463;49.884;10.010;2023-07-13T15:20:00;6.4;;;1.9;;
61570;SDS011;47463;49.884;10.010;2023-07-13T15:25:00;3.8;;;1.7;;
61570;SDS011;47463;49.884;10.010;2023-07-13T15:30:00;2.8;;;1.8;;
61570;SDS011;47463;49.884;10.010;2023-07-13T15:35:00;4.9;;;1.6;;
61570;SDS011;47463;49.884;10.010;2023-07-13T15:40:00;4.4;;;1.8;;
61570;SDS011;47463;49.884;10.010;2023-07-13T15:45:00;4.4;;;1.8;;
61570;SDS011;47463;49.884;10.010;2023-07-13T15:50:00;5.5;;;1.7;;
61570;SDS011;47463;49.884;10.010;2023-07-13T15:55:00;5.1;;;2.2;;
61570;SDS011;47463;49.884;10.010;2023-07-13T16:00:00;5.5;;;1.9;;
61570;SDS011;47463;49.884;10.010;2023-07-13T16:05:00;5.5;;;2;;
61570;SDS011;47463;49.884;10.010;2023-07-13T16:10:00;5.2;;;1.7;;
61570;SDS011;47463;49.884;10.010;2023-07-13T16:15:00;5.2;;;1.7;;
61570;SDS011;47463;49.884;10.010;2023-07-13T16:20:00;4;;;1.9;;
61570;SDS011;47463;49.884;10.010;2023-07-13T16:25:00;5.2;;;2.1;;
61570;SDS011;47463;49.884;10.010;2023-07-13T16:30:00;5.3;;;1.7;;
61570;SDS011;47463;49.884;10.010;2023-07-13T16:35:00;5.7;;;2;;
61570;SDS011;47463;49.884;10.010;2023-07-13T16:40:00;4.2;;;1.7;;
61570;SDS011;47463;49.884;10.010;2023-07-13T16:45:00;4.2;;;1.7;;
61570;SDS011;47463;49.884;10.010;2023-07-13T16:50:00;5.5;;;1.7;;
61570;SDS011;47463;49.884;10.010;2023-07-13T16:55:00;2.3;;;1.7;;
61570;SDS011;47463;49.884;10.010;2023-07-13T17:00:00;6.1;;;2.1;;
61570;SDS011;47463;49.884;10.010;2023-07-13T17:05:00;6.7;;;2.1;;
61570;SDS011;47463;49.884;10.010;2023-07-13T17:10:00;5.5;;;1.9;;
61570;SDS011;47463;49.884;10.010;2023-07-13T17:15:00;5.5;;;1.9;;
61570;SDS011;47463;49.884;10.010;2023-07-13T17:20:00;4.8;;;1.8;;
61570;SDS011;47463;49.884;10.010;2023-07-13T17:25:00;5.7;;;1.7;;
61570;SDS011;47463;49.884;10.010;2023-07-13T17:30:00;4.7;;;1.9;;
61570;SDS011;47463;49.884;10.010;2023-07-13T17:35:16;4.8;;;1.7;;
61570;SDS011;47463;49.884;10.010;2023-07-13T17:40:00;5.1;;;1.7;;
61570;SDS011;47463;49.884;10.010;2023-07-13T17:45:00;5.1;;;1.7;;
61570;SDS011;47463;49.884;10.010;2023-07-13T17:50:00;3.5;;;1.9;;
61570;SDS011;47463;49.884;10.010;2023-07-13T17:55:00;5.2;;;1.7;;
61570;SDS011;47463;49.884;10.010;2023-07-13T18:00:00;4.4;;;1.8;;
61570;SDS011;47463;49.884;10.010;2023-07-13T18:05:00;2.7;;;1.6;;
61570;SDS011;47463;49.884;10.010;2023-07-13T18:10:00;6.9;;;2.2;;
61570;SDS011;47463;49.884;10.010;2023-07-13T18:15:00;6.9;;;2.2;;
61570;SDS011;47463;49.884;10.010;2023-07-13T18:20:00;4;;;1.4;;
61570;SDS011;47463;49.884;10.010;2023-07-13T18:25:00;3.9;;;1.6;;
61570;SDS011;47463;49.884;10.010;2023-07-13T18:30:00;4.1;;;1.7;;
61570;SDS011;47463;49.884;10.010;2023-07-13T18:35:00;3.5;;;1.7;;
61570;SDS011;47463;49.884;10.010;2023-07-13T18:40:00;5.6;;;2;;
61570;SDS011;47463;49.884;10.010;2023-07-13T18:45:00;5.6;;;2;;
61570;SDS011;47463;49.884;10.010;2023-07-13T18:50:00;7.5;;;1.8;;
61570;SDS011;47463;49.884;10.010;2023-07-13T18:55:00;5.5;;;1.7;;
61570;SDS011;47463;49.884;10.010;2023-07-13T19:00:00;7.1;;;1.7;;
61570;SDS011;47463;49.884;10.010;2023-07-13T19:05:00;5.5;;;1.7;;
61570;SDS011;47463;49.884;10.010;2023-07-13T19:10:00;3.4;;;1.8;;
61570;SDS011;47463;49.884;10.010;2023-07-13T19:15:00;3.4;;;1.8;;
61570;SDS011;47463;49.884;10.010;2023-07-13T19:20:00;4.6;;;1.8;;
61570;SDS011;47463;49.884;10.010;2023-07-13T19:25:00;5.4;;;2;;
61570;SDS011;47463;49.884;10.010;2023-07-13T19:30:00;8.3;;;1.7;;
61570;SDS011;47463;49.884;10.010;2023-07-13T19:35:00;4.3;;;2.2;;
61570;SDS011;47463;49.884;10.010;2023-07-13T19:40:00;4.1;;;1.6;;
61570;SDS011;47463;49.884;10.010;2023-07-13T19:45:00;4.1;;;1.6;;
61570;SDS011;47463;49.884;10.010;2023-07-13T19:50:00;5.5;;;1.8;;
61570;SDS011;47463;49.884;10.010;2023-07-13T19:55:00;4.4;;;1.6;;
61570;SDS011;47463;49.884;10.010;2023-07-13T20:00:00;5.1;;;2.1;;
61570;SDS011;47463;49.884;10.010;2023-07-13T20:05:00;4.1;;;1.7;;
61570;SDS011;47463;49.884;10.010;2023-07-13T20:10:00;5.3;;;2;;
61570;SDS011;47463;49.884;10.010;2023-07-13T20:15:00;5.3;;;2;;
61570;SDS011;47463;49.884;10.010;2023-07-13T20:20:00;6.5;;;2;;
61570;SDS011;47463;49.884;10.010;2023-07-13T20:25:00;3.5;;;1.8;;
61570;SDS011;47463;49.884;10.010;2023-07-13T20:30:00;3.3;;;2;;
61570;SDS011;47463;49.884;10.010;2023-07-13T20:35:00;4.7;;;2.2;;
61570;SDS011;47463;49.884;10.010;2023-07-13T20:40:00;4.5;;;1.9;;
61570;SDS011;47463;49.884;10.010;2023-07-13T20:45:00;4.5;;;1.9;;
61570;SDS011;47463;49.884;10.010;2023-07-13T20:50:00;4.3;;;1.9;;
61570;SDS011;47463;49.884;10.010;2023-07-13T20:55:00;5.4;;;1.8;;
61570;SDS011;47463;49.884;10.010;2023-07-13T21:00:00;3.2;;;1.8;;
61570;SDS011;47463;49.884;10.010;2023-07-13T21:05:16;4;;;2.1;;
61570;SDS011;47463;49.884;10.010;2023-07-13T21:10:00;5.7;;;2.1;;
61570;SDS011;47463;49.884;10.010;2023-07-13T21:15:00;5.7;;;2.1;;
61570;SDS011;47463;49.884;10.010;2023-07-13T21:20:00;4.1;;;2.1;;
61570;SDS011;47463;49.884;10.010;2023-07-13T21:25:00;5;;;2.2;;
61570;SDS011;47463;49.884;10.010;2023-07-13T21:30:00;5.4;;;2.2;;
61570;SDS011;47463;49.884;10.010;2023-07-13T21:35:00;5.8;;;2;;
61570;SDS011;47463;49.884;10.010;2023-07-13T21:40:00;4.1;;;1.9;;
61570;SDS011;47463;49.884;10.010;2023-07-13T21:45:00;4.1;;;1.9;;
61570;SDS011;47463;49.884;10.010;2023-07-13T21:50:00;5;;;2;;
61570;SDS011;47463;49.884;10.010;2023-07-13T21:55:00;3.5;;;2;;
61570;SDS011;47463;49.884;10.010;2023-07-13T22:00:00;5.7;;;1.9;;
61570;SDS011;47463;49.884;10.010;2023-07-13T22:05:00;4.4;;;1.8;;
61570;SDS011;47463;49.884;10.010;2023-07-13T22:10:00;5.1;;;2.2;;
61570;SDS011;47463;49.884;10.010;2023-07-13T22:15:00;5.1;;;2.2;;
61570;SDS011;47463;49.884;10.010;2023-07-13T22:20:00;4.3;;;2.1;;
61570;SDS011;47463;49.884;10.010;2023-07-13T22:25:00;3.5;;;1.9;;
61570;SDS011;47463;49.884;10.010;2023-07-13T22:30:00;3.5;;;1.8;;
61570;SDS011;47463;49.884;10.010;2023-07-13T22:35:00;5.7;;;2.1;;
61570;SDS011;47463;49.884;10.010;2023-07-13T22:40:00;5.4;;;2;;
61570;SDS011;47463;49.884;10.010;2023-07-13T22:45:00;5.4;;;2;;
61570;SDS011;47463;49.884;10.010;2023-07-13T22:50:00;4.7;;;2;;
61570;SDS011;47463;49.884;10.010;2023-07-13T22:55:00;5.6;;;1.9;;
61570;SDS011;47463;49.884;10.010;2023-07-13T23:00:00;4.9;;;2.1;;
61570;SDS011;47463;49.884;10.010;2023-07-13T23:05:00;4.1;;;2.2;;
61570;SDS011;47463;49.884;10.010;2023-07-13T23:10:00;3.5;;;2;;
61570;SDS011;47463;49.884;10.010;2023-07-13T23:15:00;3.5;;;2;;
61570;SDS011;47463;49.884;10.010;2023-07-13T23:20:00;4.4;;;1.9;;
61570;SDS011;47463;49.884;10.010;2023-07-13T23:25:00;3.8;;;2.3;;
61570;SDS011;47463;49.884;10.010;2023-07-13T23:30:00;3.3;;;1.7;;
61570;SDS011;47463;49.884;10.010;2023-07-13T23:35:00;5.3;;;1.9;;
61570;SDS011;47463;49.884;10.010;2023-07-13T23:40:00;3.9;;;2;;
61570;SDS011;47463;49.884;10.010;2023-07-13T23:45:00;3.9;;;2;;
61570;SDS011;47463;49.884;10.010;2023-07-13T23:50:00;5.5;;;2.1;;
61570;SDS011;47463;49.884;10.010;2023-07-13T23:55:00;3.3;;;2.1;;
